Saint-Lin, Canada
Current Conditions -  °F | °C
As of 10:00 AM on Friday 28 Nov 2014 (Local Time) from CYMX Reporting Station
Broken Clouds Broken Clouds  
Wind Chill: 17°   Ceiling: 8500
Heat Index: 25°   Visibility: 20mi
Dew Point: 16°   Wind: 7mph
Humidity: 69%   Direction: 210°SSW
Pressure: 30.11"   Gusts: NA
Location:  45.85°N, 73.77°W
Report Text: CYMX 281500Z 21006KT 190V260 20SM SCT017 SCT025 BKN085 M04/M09 A3011 RMK SC3SC1AC2 SLP200
Loading
Personal Weather Stations






























Interactive Weather Map New forecast layout! Learn more

10-Day Weather Forecast

Advertisements
Track Severe Weather on mobile